MOL Celebration — C6WW7 — position and weather

sailwx.info

Track history (hours):
 
Tides and Currents Weather Stations Pressure Air Temp Water Temp Dewpoint Dewpoint Depression Visibility Wind Speed Wind Dir Waves Ship Positions

MOL Celebration

Last reported at 2014-Sep-09 04:05 UTC. Time now 2014-Sep-19 11:55 UTC.
Position N 01°13' E 103°52'.
Warning: this ship's position is 10 days out of date.

Length 316 m; draft 13.9 m.

Type: Ship (hazmat cat D). MMSI: 309901000.

Date/timePositionNaut miles runAvg speedWind from/ knotsBaromVisibWave heightAir tempDewpointWater temp
2014-Sep-09 04:05N 01°13' E 103°52'3 5.7
2014-Sep-09 03:33N 01°16' E 103°51'1 1.0
2014-Sep-09 02:33N 01°16' E 103°50'0 0.0
2014-Sep-09 01:30N 01°16' E 103°50'0 0.0
2014-Sep-09 00:30N 01°16' E 103°50'0 0.0
2014-Sep-08 23:33N 01°16' E 103°50'0 0.0
2014-Sep-08 22:33N 01°16' E 103°50'0 0.0
2014-Sep-08 21:33N 01°16' E 103°50'0 0.0
2014-Sep-08 20:33N 01°16' E 103°50'0 0.0
2014-Sep-08 19:33N 01°16' E 103°50'0 0.0
2014-Sep-08 18:33N 01°16' E 103°50'0 0.0
2014-Sep-08 17:33N 01°16' E 103°50'0 0.0
2014-Sep-08 16:30N 01°16' E 103°50'0 0.0
2014-Sep-08 15:33N 01°16' E 103°50'0 0.0
2014-Sep-08 14:33N 01°16' E 103°50'0 0.0
2014-Sep-08 13:27N 01°16' E 103°50'0 0.0
2014-Sep-08 12:33N 01°16' E 103°50'0 0.0
2014-Sep-08 11:33N 01°16' E 103°50'0 0.0
2014-Sep-08 10:18N 01°16' E 103°50'0 0.0
2014-Sep-08 09:30N 01°16' E 103°50'0 0.0
2014-Sep-08 08:24N 01°16' E 103°50'0 0.0
2014-Sep-08 07:34N 01°16' E 103°50'0 0.0
2014-Sep-08 06:30N 01°16' E 103°50'0 0.0
2014-Sep-08 05:34N 01°16' E 103°50'0 0.0
2014-Sep-08 04:31N 01°16' E 103°50'0 0.0
2014-Sep-08 03:28N 01°16' E 103°50'0 0.0
2014-Sep-08 02:28N 01°16' E 103°50'0 0.0
2014-Sep-08 01:31N 01°16' E 103°50'0 0.1
2014-Sep-08 00:33N 01°16' E 103°50'3 2.9
2014-Sep-07 23:33N 01°14' E 103°53'1 1.4
2014-Sep-07 22:34N 01°14' E 103°54'5 5.1
2014-Sep-07 21:33N 01°15' E 103°59'8 8.0
2014-Sep-07 20:33N 01°16' E 104°07'11 9.7
2014-Sep-07 19:27N 01°18' E 104°17'  
2014-Sep-02 10:30N 22°20' E 114°07'0 0.0
2014-Sep-01 07:28N 22°20' E 114°07'10 7.3
2014-Sep-01 06:09N 22°11' E 114°12'22319.2
2014-Aug-31 18:34N 23°29' E 117°58'2222.3
2014-Aug-31 17:34N 23°44' E 118°17'2322.4
2014-Aug-31 16:33N 23°57' E 118°37'2221.9
2014-Aug-31 15:33N 24°09' E 118°56'3222.1
2014-Aug-31 14:07N 24°30' E 119°22'1322.1
2014-Aug-31 13:32N 24°38' E 119°34'2122.0
2014-Aug-31 12:33N 24°51' E 119°53'2722.1
2014-Aug-31 11:21N 25°07' E 120°16'  
Track history (hours):
 
Tides and Currents Weather Stations Pressure Air Temp Water Temp Dewpoint Dewpoint Depression Visibility Wind Speed Wind Dir Waves Ship Positions

MOL Celebration

Last reported at 2014-Sep-09 04:05 UTC. Time now 2014-Sep-19 11:55 UTC.
Position N 01°13' E 103°52'.
Warning: this ship's position is 10 days out of date.

Length 316 m; draft 13.9 m.

Type: Ship (hazmat cat D). MMSI: 309901000.

Date/timePositionNaut miles runAvg speedWind from/ knotsBaromVisibWave heightAir tempDewpointWater temp
2014-Sep-09 04:05N 01°13' E 103°52'3 5.7
2014-Sep-09 03:33N 01°16' E 103°51'1 1.0
2014-Sep-09 02:33N 01°16' E 103°50'0 0.0
2014-Sep-09 01:30N 01°16' E 103°50'0 0.0
2014-Sep-09 00:30N 01°16' E 103°50'0 0.0
2014-Sep-08 23:33N 01°16' E 103°50'0 0.0
2014-Sep-08 22:33N 01°16' E 103°50'0 0.0
2014-Sep-08 21:33N 01°16' E 103°50'0 0.0
2014-Sep-08 20:33N 01°16' E 103°50'0 0.0
2014-Sep-08 19:33N 01°16' E 103°50'0 0.0
2014-Sep-08 18:33N 01°16' E 103°50'0 0.0
2014-Sep-08 17:33N 01°16' E 103°50'0 0.0
2014-Sep-08 16:30N 01°16' E 103°50'0 0.0
2014-Sep-08 15:33N 01°16' E 103°50'0 0.0
2014-Sep-08 14:33N 01°16' E 103°50'0 0.0
2014-Sep-08 13:27N 01°16' E 103°50'0 0.0
2014-Sep-08 12:33N 01°16' E 103°50'0 0.0
2014-Sep-08 11:33N 01°16' E 103°50'0 0.0
2014-Sep-08 10:18N 01°16' E 103°50'0 0.0
2014-Sep-08 09:30N 01°16' E 103°50'0 0.0
2014-Sep-08 08:24N 01°16' E 103°50'0 0.0
2014-Sep-08 07:34N 01°16' E 103°50'0 0.0
2014-Sep-08 06:30N 01°16' E 103°50'0 0.0
2014-Sep-08 05:34N 01°16' E 103°50'0 0.0
2014-Sep-08 04:31N 01°16' E 103°50'0 0.0
2014-Sep-08 03:28N 01°16' E 103°50'0 0.0
2014-Sep-08 02:28N 01°16' E 103°50'0 0.0
2014-Sep-08 01:31N 01°16' E 103°50'0 0.1
2014-Sep-08 00:33N 01°16' E 103°50'3 2.9
2014-Sep-07 23:33N 01°14' E 103°53'1 1.4
2014-Sep-07 22:34N 01°14' E 103°54'5 5.1
2014-Sep-07 21:33N 01°15' E 103°59'8 8.0
2014-Sep-07 20:33N 01°16' E 104°07'11 9.7
2014-Sep-07 19:27N 01°18' E 104°17'  
2014-Sep-02 10:30N 22°20' E 114°07'0 0.0
2014-Sep-01 07:28N 22°20' E 114°07'10 7.3
2014-Sep-01 06:09N 22°11' E 114°12'22319.2
2014-Aug-31 18:34N 23°29' E 117°58'2222.3
2014-Aug-31 17:34N 23°44' E 118°17'2322.4
2014-Aug-31 16:33N 23°57' E 118°37'2221.9
2014-Aug-31 15:33N 24°09' E 118°56'3222.1
2014-Aug-31 14:07N 24°30' E 119°22'1322.1
2014-Aug-31 13:32N 24°38' E 119°34'2122.0
2014-Aug-31 12:33N 24°51' E 119°53'2722.1
2014-Aug-31 11:21N 25°07' E 120°16'  

Dump ship's entire track history